createdAt,value
2023-04-05T00:00:20.513Z,-0.13
2023-04-05T00:01:20.508Z,-0.21
2023-04-05T00:02:20.499Z,-0.20
2023-04-05T00:03:20.603Z,-0.28
2023-04-05T00:04:21.610Z,-0.29
2023-04-05T00:05:20.475Z,-0.31
2023-04-05T00:06:20.472Z,-0.29
2023-04-05T00:07:20.470Z,-0.34
2023-04-05T00:08:20.458Z,-0.26
2023-04-05T00:09:20.492Z,-0.23
2023-04-05T00:10:20.439Z,-0.35
2023-04-05T00:11:20.430Z,-0.29
2023-04-05T00:12:20.428Z,-0.26
2023-04-05T00:13:20.426Z,-0.34
2023-04-05T00:14:20.440Z,-0.32
2023-04-05T00:15:20.400Z,-0.34
2023-04-05T00:16:20.411Z,-0.25
2023-04-05T00:17:20.388Z,-0.38
2023-04-05T00:18:20.395Z,-0.28
2023-04-05T00:19:20.403Z,-0.32
2023-04-05T00:20:20.370Z,-0.36
2023-04-05T00:21:20.360Z,-0.31
2023-04-05T00:22:20.352Z,-0.39
2023-04-05T00:23:20.351Z,-0.43
2023-04-05T00:24:20.378Z,-0.49
2023-04-05T00:25:20.330Z,-0.59
2023-04-05T00:26:20.331Z,-0.47
2023-04-05T00:27:20.310Z,-0.50
2023-04-05T00:28:21.301Z,-0.61
2023-04-05T00:29:20.326Z,-0.64
2023-04-05T00:30:20.297Z,-0.54
2023-04-05T00:31:20.284Z,-0.57
2023-04-05T00:32:20.278Z,-0.54
2023-04-05T00:33:20.276Z,-0.53
2023-04-05T00:34:20.263Z,-0.65
2023-04-05T00:35:20.283Z,-0.62
2023-04-05T00:36:20.244Z,-0.65
2023-04-05T00:37:20.238Z,-0.64
2023-04-05T00:38:20.249Z,-0.65
2023-04-05T00:39:21.223Z,-0.68
2023-04-05T00:40:20.254Z,-0.67
2023-04-05T00:41:20.215Z,-0.71
2023-04-05T00:42:20.203Z,-0.71
2023-04-05T00:43:20.195Z,-0.86
2023-04-05T00:44:20.193Z,-0.89
2023-04-05T00:45:20.230Z,-0.86
2023-04-05T00:46:20.193Z,-0.83
2023-04-05T00:47:20.173Z,-0.86
2023-04-05T00:48:20.184Z,-0.93
2023-04-05T00:49:20.172Z,-0.97
2023-04-05T00:50:20.180Z,-0.96
2023-04-05T00:51:20.197Z,-1.09
2023-04-05T00:52:20.134Z,-0.97
2023-04-05T00:53:20.129Z,-0.93
2023-04-05T00:54:20.124Z,-1.01
2023-04-05T00:55:20.131Z,-1.08
2023-04-05T00:56:20.099Z,-1.05
2023-04-05T00:57:20.097Z,-0.96
2023-04-05T00:58:20.139Z,-1.09
2023-04-05T00:59:20.109Z,-1.09
2023-04-05T01:00:20.085Z,-1.12
2023-04-05T01:01:20.097Z,-1.04
2023-04-05T01:02:20.054Z,-1.15
2023-04-05T01:03:20.042Z,-1.07
2023-04-05T01:04:20.067Z,-1.05
2023-04-05T01:05:20.056Z,-1.14
2023-04-05T01:06:20.020Z,-1.14
2023-04-05T01:07:21.006Z,-1.23
2023-04-05T01:08:20.091Z,-1.20
2023-04-05T01:09:19.992Z,-1.22
2023-04-05T01:10:20.014Z,-1.19
2023-04-05T01:11:19.976Z,-1.14
2023-04-05T01:12:19.981Z,-1.19
2023-04-05T01:13:19.960Z,-1.27
2023-04-05T01:14:19.960Z,-1.17
2023-04-05T01:15:19.984Z,-1.32
2023-04-05T01:16:19.994Z,-1.26
2023-04-05T01:17:19.934Z,-1.37
2023-04-05T01:18:19.983Z,-1.29
2023-04-05T01:19:19.917Z,-1.33
2023-04-05T01:20:19.943Z,-1.33
2023-04-05T01:21:19.904Z,-1.30
2023-04-05T01:22:19.902Z,-1.37
2023-04-05T01:23:19.888Z,-1.37
2023-04-05T01:24:19.895Z,-1.37
2023-04-05T01:25:19.896Z,-1.38
2023-04-05T01:26:19.880Z,-1.44
2023-04-05T01:27:19.868Z,-1.38
2023-04-05T01:28:19.876Z,-1.35
2023-04-05T01:29:19.851Z,-1.38
2023-04-05T01:30:19.858Z,-1.33
2023-04-05T01:31:19.909Z,-1.35
2023-04-05T01:32:19.825Z,-1.33
2023-04-05T01:33:19.807Z,-1.43
2023-04-05T01:34:19.812Z,-1.40
2023-04-05T01:35:21.283Z,-1.41
2023-04-05T01:36:19.861Z,-1.35
2023-04-05T01:37:19.796Z,-1.40
2023-04-05T01:38:19.785Z,-1.41
2023-04-05T01:39:19.769Z,-1.41
2023-04-05T01:40:19.785Z,-1.43
2023-04-05T01:41:19.750Z,-1.38
2023-04-05T01:42:19.750Z,-1.47
2023-04-05T01:43:19.738Z,-1.47
2023-04-05T01:44:19.732Z,-1.50
2023-04-05T01:45:19.762Z,-1.43
2023-04-05T01:46:19.738Z,-1.46
2023-04-05T01:47:19.711Z,-1.51
2023-04-05T01:48:19.708Z,-1.58
2023-04-05T01:49:19.706Z,-1.58
2023-04-05T01:50:19.729Z,-1.56
2023-04-05T01:51:19.688Z,-1.54
2023-04-05T01:52:19.674Z,-1.53
2023-04-05T01:53:19.670Z,-1.51
2023-04-05T01:54:19.666Z,-1.54
2023-04-05T01:55:19.673Z,-1.62
2023-04-05T01:56:20.653Z,-1.66
2023-04-05T01:57:19.641Z,-1.62
2023-04-05T01:58:19.628Z,-1.58
2023-04-05T01:59:19.638Z,-1.61
2023-04-05T02:00:19.617Z,-1.61
2023-04-05T02:01:19.660Z,-1.66
2023-04-05T02:02:19.599Z,-1.66
2023-04-05T02:03:19.639Z,-1.62
2023-04-05T02:04:19.588Z,-1.68
2023-04-05T02:05:19.587Z,-1.65
2023-04-05T02:06:19.601Z,-1.66
2023-04-05T02:07:19.566Z,-1.62
2023-04-05T02:08:19.566Z,-1.76
2023-04-05T02:09:19.551Z,-1.69
2023-04-05T02:10:19.547Z,-1.69
2023-04-05T02:11:19.569Z,-1.79
2023-04-05T02:12:19.537Z,-1.83
2023-04-05T02:13:19.520Z,-1.77
2023-04-05T02:14:19.533Z,-1.77
2023-04-05T02:15:19.508Z,-1.82
2023-04-05T02:16:19.562Z,-1.82
2023-04-05T02:17:19.501Z,-1.92
2023-04-05T02:18:19.526Z,-1.82
2023-04-05T02:19:19.486Z,-1.97
2023-04-05T02:20:19.474Z,-1.86
2023-04-05T02:21:19.487Z,-2.04
2023-04-05T02:22:19.468Z,-1.97
2023-04-05T02:23:19.479Z,-2.01
2023-04-05T02:24:19.450Z,-1.97
2023-04-05T02:25:19.445Z,-2.01
2023-04-05T02:26:19.451Z,-2.05
2023-04-05T02:27:19.421Z,-2.08
2023-04-05T02:28:19.420Z,-2.05
2023-04-05T02:29:19.412Z,-2.08
2023-04-05T02:30:19.400Z,-2.08
2023-04-05T02:31:19.435Z,-2.13
2023-04-05T02:32:19.386Z,-2.18
2023-04-05T02:33:19.377Z,-2.19
2023-04-05T02:34:19.374Z,-2.13
2023-04-05T02:35:19.408Z,-2.15
2023-04-05T02:36:19.374Z,-2.18
2023-04-05T02:37:19.356Z,-2.15
2023-04-05T02:38:19.355Z,-2.12
2023-04-05T02:39:19.331Z,-2.18
2023-04-05T02:40:19.323Z,-2.10
2023-04-05T02:41:19.341Z,-2.13
2023-04-05T02:42:19.316Z,-2.22
2023-04-05T02:43:19.328Z,-2.26
2023-04-05T02:44:19.298Z,-2.18
2023-04-05T02:45:19.292Z,-2.26
2023-04-05T02:46:19.459Z,-2.21
2023-04-05T02:47:19.269Z,-2.32
2023-04-05T02:48:19.274Z,-2.26
2023-04-05T02:49:19.263Z,-2.23
2023-04-05T02:50:19.263Z,-2.28
2023-04-05T02:51:19.275Z,-2.30
2023-04-05T02:52:19.230Z,-2.21
2023-04-05T02:53:19.248Z,-2.40
2023-04-05T02:54:19.218Z,-2.23
2023-04-05T02:55:19.205Z,-2.23
2023-04-05T02:56:19.227Z,-2.37
2023-04-05T02:57:19.201Z,-2.40
2023-04-05T02:58:19.185Z,-2.23
2023-04-05T02:59:19.210Z,-2.35
2023-04-05T03:00:19.180Z,-2.45
2023-04-05T03:01:19.230Z,-2.48
2023-04-05T03:02:19.161Z,-2.53
2023-04-05T03:03:19.202Z,-2.53
2023-04-05T03:04:19.153Z,-2.63
2023-04-05T03:05:19.147Z,-2.55
2023-04-05T03:06:19.150Z,-2.62
2023-04-05T03:07:19.133Z,-2.52
2023-04-05T03:08:19.115Z,-2.53
2023-04-05T03:09:19.112Z,-2.45
2023-04-05T03:10:19.117Z,-2.52
2023-04-05T03:11:19.114Z,-2.53
2023-04-05T03:12:19.085Z,-2.53
2023-04-05T03:13:19.086Z,-2.41
2023-04-05T03:14:19.081Z,-2.56
2023-04-05T03:15:19.066Z,-2.48
2023-04-05T03:16:19.130Z,-2.55
2023-04-05T03:17:19.056Z,-2.44
2023-04-05T03:18:19.043Z,-2.45
2023-04-05T03:19:19.038Z,-2.52
2023-04-05T03:20:19.034Z,-2.58
2023-04-05T03:21:19.085Z,-2.59
2023-04-05T03:22:19.023Z,-2.60
2023-04-05T03:23:19.001Z,-2.59
2023-04-05T03:24:19.007Z,-2.56
2023-04-05T03:25:19.032Z,-2.65
2023-04-05T03:26:19.008Z,-2.62
2023-04-05T03:27:18.969Z,-2.60
2023-04-05T03:28:19.960Z,-2.71
2023-04-05T03:29:18.954Z,-2.70
2023-04-05T03:30:18.969Z,-2.77
2023-04-05T03:31:20.606Z,-2.62
2023-04-05T03:32:19.941Z,-2.70
2023-04-05T03:33:18.935Z,-2.66
2023-04-05T03:34:18.930Z,-2.70
2023-04-05T03:35:19.991Z,-2.60
2023-04-05T03:36:18.942Z,-2.59
2023-04-05T03:37:18.904Z,-2.71
2023-04-05T03:38:18.911Z,-2.66
2023-04-05T03:39:18.889Z,-2.71
2023-04-05T03:40:18.885Z,-2.71
2023-04-05T03:41:18.864Z,-2.71
2023-04-05T03:42:19.894Z,-2.76
2023-04-05T03:43:18.858Z,-2.73
2023-04-05T03:44:18.863Z,-2.74
2023-04-05T03:45:23.317Z,-2.76
2023-04-05T03:46:20.906Z,-2.76
2023-04-05T03:47:18.841Z,-2.84
2023-04-05T03:48:18.821Z,-2.94
2023-04-05T03:49:18.813Z,-2.92
2023-04-05T03:50:18.819Z,-2.98
2023-04-05T03:51:18.794Z,-2.95
2023-04-05T03:52:18.816Z,-2.99
2023-04-05T03:53:18.782Z,-2.99
2023-04-05T03:54:18.774Z,-2.99
2023-04-05T03:55:18.764Z,-2.97
2023-04-05T03:56:18.753Z,-3.02
2023-04-05T03:57:19.750Z,-3.10
2023-04-05T03:58:18.760Z,-3.01
2023-04-05T03:59:18.741Z,-3.07
2023-04-05T04:00:18.727Z,-3.10
2023-04-05T04:01:18.727Z,-3.06
2023-04-05T04:02:18.784Z,-3.12
2023-04-05T04:03:18.704Z,-3.09
2023-04-05T04:04:18.700Z,-3.02
2023-04-05T04:05:18.822Z,-3.04
2023-04-05T04:06:19.511Z,-3.02
2023-04-05T04:07:19.703Z,-3.16
2023-04-05T04:08:18.676Z,-2.99
2023-04-05T04:09:18.663Z,-3.15
2023-04-05T04:10:18.654Z,-3.09
2023-04-05T04:11:18.639Z,-3.12
2023-04-05T04:12:18.655Z,-3.09
2023-04-05T04:13:18.626Z,-3.09
2023-04-05T04:14:18.620Z,-3.13
2023-04-05T04:15:18.612Z,-3.13
2023-04-05T04:16:18.628Z,-3.13
2023-04-05T04:17:18.633Z,-3.20
2023-04-05T04:18:18.610Z,-3.20
2023-04-05T04:19:18.600Z,-3.22
2023-04-05T04:20:18.581Z,-3.20
2023-04-05T04:21:18.588Z,-3.22
2023-04-05T04:22:18.592Z,-3.19
2023-04-05T04:23:18.581Z,-3.33
2023-04-05T04:24:18.620Z,-3.28
2023-04-05T04:25:18.537Z,-3.25
2023-04-05T04:26:18.533Z,-3.17
2023-04-05T04:27:18.564Z,-3.17
2023-04-05T04:28:18.513Z,-3.22
2023-04-05T04:29:18.515Z,-3.23
2023-04-05T04:30:18.515Z,-3.22
2023-04-05T04:31:19.518Z,-3.34
2023-04-05T04:32:18.534Z,-3.28
2023-04-05T04:33:18.545Z,-3.34
2023-04-05T04:34:18.478Z,-3.23
2023-04-05T04:35:18.638Z,-3.28
2023-04-05T04:36:19.175Z,-3.17
2023-04-05T04:37:18.500Z,-3.20
2023-04-05T04:38:18.436Z,-3.16
2023-04-05T04:39:18.434Z,-3.20
2023-04-05T04:40:18.435Z,-3.20
2023-04-05T04:41:18.416Z,-3.17
2023-04-05T04:42:18.430Z,-3.19
2023-04-05T04:43:18.401Z,-3.22
2023-04-05T04:44:18.393Z,-3.20
2023-04-05T04:45:18.395Z,-3.27
2023-04-05T04:46:18.501Z,-3.28
2023-04-05T04:47:18.398Z,-3.22
2023-04-05T04:48:18.361Z,-3.28
2023-04-05T04:49:18.356Z,-3.17
2023-04-05T04:50:18.351Z,-3.20
2023-04-05T04:51:18.347Z,-3.34
2023-04-05T04:52:18.358Z,-3.30
2023-04-05T04:53:18.328Z,-3.23
2023-04-05T04:54:19.323Z,-3.16
2023-04-05T04:55:18.310Z,-3.33
2023-04-05T04:56:18.310Z,-3.28
2023-04-05T04:57:18.321Z,-3.25
2023-04-05T04:58:18.312Z,-3.19
2023-04-05T04:59:19.338Z,-3.22
2023-04-05T05:00:18.279Z,-3.22
2023-04-05T05:01:18.344Z,-3.13
2023-04-05T05:02:18.285Z,-3.19
2023-04-05T05:03:18.256Z,-3.20
2023-04-05T05:04:18.286Z,-3.20
2023-04-05T05:05:18.237Z,-3.15
2023-04-05T05:06:19.237Z,-3.15
2023-04-05T05:07:18.254Z,-2.99
2023-04-05T05:08:20.601Z,-3.09
2023-04-05T05:09:19.220Z,-2.95
2023-04-05T05:10:18.205Z,-2.76
2023-04-05T05:11:18.205Z,-2.44
2023-04-05T05:12:18.220Z,-1.79
2023-04-05T05:13:18.190Z,-1.22
2023-04-05T05:14:18.187Z,-0.62
2023-04-05T05:15:18.172Z,0.00
2023-04-05T05:16:18.199Z,0.41
2023-04-05T05:17:18.186Z,0.86
2023-04-05T05:18:18.151Z,1.40
2023-04-05T05:19:18.145Z,1.76
2023-04-05T05:20:18.137Z,2.17
2023-04-05T05:21:18.130Z,2.62
2023-04-05T05:22:18.160Z,2.85
2023-04-05T05:23:18.123Z,3.11
2023-04-05T05:24:18.103Z,3.31
2023-04-05T05:25:18.098Z,3.69
2023-04-05T05:26:18.086Z,4.02
2023-04-05T05:27:18.125Z,4.20
2023-04-05T05:28:18.081Z,4.50
2023-04-05T05:29:18.067Z,4.73
2023-04-05T05:30:18.061Z,4.94
2023-04-05T05:31:18.223Z,5.28
2023-04-05T05:32:18.068Z,5.44
2023-04-05T05:33:18.039Z,5.82
2023-04-05T05:34:18.037Z,6.08
2023-04-05T05:35:18.046Z,6.26
2023-04-05T05:36:18.012Z,6.42
2023-04-05T05:37:18.038Z,6.82
2023-04-05T05:38:18.001Z,6.74
2023-04-05T05:39:17.997Z,6.88
2023-04-05T05:40:17.978Z,6.99
2023-04-05T05:41:17.967Z,7.21
2023-04-05T05:42:18.022Z,7.47
2023-04-05T05:43:17.953Z,7.58
2023-04-05T05:44:17.957Z,7.67
2023-04-05T05:45:17.936Z,7.87
2023-04-05T05:46:19.396Z,8.01
2023-04-05T05:47:17.920Z,8.15
2023-04-05T05:48:17.934Z,8.26
2023-04-05T05:49:17.947Z,8.46
2023-04-05T05:50:17.892Z,8.61
2023-04-05T05:51:17.884Z,8.69
2023-04-05T05:52:17.876Z,8.87
2023-04-05T05:53:17.911Z,8.82
2023-04-05T05:54:17.862Z,8.84
2023-04-05T05:55:17.853Z,8.89
2023-04-05T05:56:17.849Z,8.97
2023-04-05T05:57:17.837Z,9.13
2023-04-05T05:58:17.864Z,9.14
2023-04-05T05:59:17.845Z,9.18
2023-04-05T06:00:17.863Z,9.37
2023-04-05T06:01:17.809Z,9.41
2023-04-05T06:02:17.808Z,9.50
2023-04-05T06:03:17.918Z,9.76
2023-04-05T06:04:17.916Z,9.97
2023-04-05T06:05:17.781Z,10.15
2023-04-05T06:06:17.765Z,10.25
2023-04-05T06:07:17.763Z,10.30
2023-04-05T06:08:17.780Z,10.53
2023-04-05T06:09:17.747Z,10.61
2023-04-05T06:10:17.742Z,10.68
2023-04-05T06:11:17.744Z,10.42
2023-04-05T06:12:17.748Z,10.22
2023-04-05T06:13:17.748Z,10.09
2023-04-05T06:14:17.711Z,9.92
2023-04-05T06:15:17.697Z,9.48
2023-04-05T06:16:17.732Z,9.39
2023-04-05T06:17:17.689Z,9.51
2023-04-05T06:18:17.739Z,9.66
2023-04-05T06:19:17.685Z,9.95
2023-04-05T06:20:17.661Z,10.05
2023-04-05T06:21:17.703Z,9.77
2023-04-05T06:22:17.644Z,9.86
2023-04-05T06:23:17.661Z,10.02
2023-04-05T06:24:17.632Z,10.07
2023-04-05T06:25:18.351Z,9.99
2023-04-05T06:26:18.608Z,10.48
2023-04-05T06:27:17.604Z,10.40
2023-04-05T06:28:17.615Z,10.72
2023-04-05T06:29:17.587Z,10.75
2023-04-05T06:30:17.579Z,10.96
2023-04-05T06:31:17.879Z,10.74
2023-04-05T06:32:17.558Z,10.94
2023-04-05T06:33:17.593Z,10.86
2023-04-05T06:34:17.539Z,10.94
2023-04-05T06:35:17.537Z,11.26
2023-04-05T06:36:17.531Z,11.45
2023-04-05T06:37:17.521Z,11.65
2023-04-05T06:38:17.544Z,11.75
2023-04-05T06:39:17.505Z,11.50
2023-04-05T06:40:17.483Z,11.51
2023-04-05T06:41:18.489Z,11.47
2023-04-05T06:42:17.487Z,11.68
2023-04-05T06:43:17.497Z,11.66
2023-04-05T06:44:17.465Z,11.66
2023-04-05T06:45:17.465Z,11.81
2023-04-05T06:46:17.467Z,11.86
2023-04-05T06:47:17.439Z,12.04
2023-04-05T06:48:17.459Z,12.40
2023-04-05T06:49:17.427Z,12.58
2023-04-05T06:50:17.418Z,12.49
2023-04-05T06:51:17.417Z,12.32
2023-04-05T06:52:17.402Z,12.60
2023-04-05T06:53:17.430Z,12.57
2023-04-05T06:54:17.389Z,12.47
2023-04-05T06:55:17.381Z,12.55
2023-04-05T06:56:17.373Z,12.61
2023-04-05T06:57:17.364Z,12.70
2023-04-05T06:58:17.409Z,12.57
2023-04-05T06:59:17.412Z,12.28
2023-04-05T07:00:17.371Z,12.13
2023-04-05T07:01:17.419Z,12.17
2023-04-05T07:02:17.327Z,12.20
2023-04-05T07:03:17.388Z,11.90
2023-04-05T07:04:17.345Z,11.80
2023-04-05T07:05:17.308Z,12.09
2023-04-05T07:06:17.295Z,12.54
2023-04-05T07:07:17.284Z,12.64
2023-04-05T07:08:17.371Z,12.58
2023-04-05T07:09:17.272Z,12.95
2023-04-05T07:10:17.271Z,13.00
2023-04-05T07:11:17.261Z,13.05
2023-04-05T07:12:17.251Z,12.67
2023-04-05T07:13:17.280Z,12.53
2023-04-05T07:14:17.249Z,12.04
2023-04-05T07:15:17.230Z,12.47
2023-04-05T07:16:17.278Z,12.22
2023-04-05T07:17:17.210Z,12.15
2023-04-05T07:18:17.236Z,12.20
2023-04-05T07:19:17.201Z,12.04
2023-04-05T07:20:17.189Z,11.57
2023-04-05T07:21:17.184Z,11.80
2023-04-05T07:22:17.380Z,12.27
2023-04-05T07:23:17.187Z,11.81
2023-04-05T07:24:17.157Z,11.54
2023-04-05T07:25:17.148Z,11.45
2023-04-05T07:26:17.142Z,11.37
2023-04-05T07:27:17.136Z,11.51
2023-04-05T07:28:17.171Z,12.32
2023-04-05T07:29:17.126Z,13.13
2023-04-05T07:30:17.119Z,12.98
2023-04-05T07:31:17.144Z,12.73
2023-04-05T07:32:17.116Z,12.86
2023-04-05T07:33:17.140Z,12.60
2023-04-05T07:34:17.083Z,12.25
2023-04-05T07:35:17.083Z,12.45
2023-04-05T07:36:17.122Z,12.93
2023-04-05T07:37:17.067Z,13.05
2023-04-05T07:38:17.090Z,12.73
2023-04-05T07:39:17.054Z,12.78
2023-04-05T07:40:17.038Z,13.04
2023-04-05T07:41:17.039Z,13.90
2023-04-05T07:42:17.030Z,14.36
2023-04-05T07:43:17.040Z,14.08
2023-04-05T07:44:17.016Z,13.87
2023-04-05T07:45:17.015Z,13.54
2023-04-05T07:46:17.015Z,13.75
2023-04-05T07:47:16.988Z,14.11
2023-04-05T07:48:17.006Z,13.70
2023-04-05T07:49:16.975Z,14.05
2023-04-05T07:50:16.970Z,13.83
2023-04-05T07:51:16.961Z,14.07
2023-04-05T07:52:16.956Z,14.41
2023-04-05T07:53:16.999Z,14.92
2023-04-05T07:54:16.964Z,14.43
2023-04-05T07:55:16.940Z,14.58
2023-04-05T07:56:16.954Z,13.86
2023-04-05T07:57:16.938Z,13.04
2023-04-05T07:58:16.938Z,12.62
2023-04-05T07:59:16.938Z,12.68
2023-04-05T08:00:16.898Z,12.93
2023-04-05T08:01:16.894Z,13.39
2023-04-05T08:02:16.889Z,13.86
2023-04-05T08:03:16.955Z,14.44
2023-04-05T08:04:16.879Z,14.99
2023-04-05T08:05:16.892Z,14.51
2023-04-05T08:06:16.853Z,14.48
2023-04-05T08:07:16.853Z,14.00
2023-04-05T08:08:16.871Z,13.75
2023-04-05T08:09:16.843Z,13.74
2023-04-05T08:10:16.817Z,14.00
2023-04-05T08:11:16.819Z,14.36
2023-04-05T08:12:16.809Z,14.82
2023-04-05T08:13:16.832Z,15.00
2023-04-05T08:14:16.794Z,14.99
2023-04-05T08:15:16.783Z,14.96
2023-04-05T08:16:16.828Z,15.24
2023-04-05T08:17:16.836Z,15.52
2023-04-05T08:18:16.798Z,15.39
2023-04-05T08:19:16.763Z,13.92
2023-04-05T08:20:16.750Z,13.77
2023-04-05T08:21:16.744Z,13.95
2023-04-05T08:22:16.738Z,12.31
2023-04-05T08:23:16.759Z,11.18
2023-04-05T08:24:16.732Z,10.69
2023-04-05T08:25:16.715Z,10.46
2023-04-05T08:26:16.706Z,11.27
2023-04-05T08:27:16.735Z,12.35
2023-04-05T08:28:16.722Z,11.78
2023-04-05T08:29:16.692Z,11.88
2023-04-05T08:30:16.677Z,11.75
2023-04-05T08:31:16.686Z,11.52
2023-04-05T08:32:16.701Z,12.43
2023-04-05T08:33:16.772Z,13.01
2023-04-05T08:34:16.653Z,13.77
2023-04-05T08:35:16.644Z,13.65
2023-04-05T08:36:16.638Z,13.28
2023-04-05T08:37:16.638Z,13.90
2023-04-05T08:38:16.656Z,14.41
2023-04-05T08:39:16.624Z,13.71
2023-04-05T08:40:16.617Z,13.77
2023-04-05T08:41:16.612Z,13.71
2023-04-05T08:42:16.602Z,13.08
2023-04-05T08:43:18.478Z,13.52
2023-04-05T08:44:16.595Z,13.92
2023-04-05T08:45:16.601Z,14.26
2023-04-05T08:46:16.661Z,14.84
2023-04-05T08:47:16.564Z,14.77
2023-04-05T08:48:16.556Z,14.88
2023-04-05T08:49:16.575Z,14.88
2023-04-05T08:50:16.546Z,14.94
2023-04-05T08:51:16.532Z,14.86
2023-04-05T08:52:17.528Z,14.62
2023-04-05T08:53:16.525Z,14.32
2023-04-05T08:54:16.558Z,14.73
2023-04-05T08:55:16.507Z,14.92
2023-04-05T08:56:16.506Z,14.86
2023-04-05T08:57:16.497Z,15.04
2023-04-05T08:58:16.485Z,15.21
2023-04-05T08:59:16.529Z,14.92
2023-04-05T09:00:16.470Z,15.14
2023-04-05T09:01:16.523Z,15.51
2023-04-05T09:02:16.564Z,15.03
2023-04-05T09:03:16.535Z,15.06
2023-04-05T09:04:16.474Z,14.77
2023-04-05T09:05:16.441Z,15.07
2023-04-05T09:06:16.424Z,15.18
2023-04-05T09:07:16.436Z,15.29
2023-04-05T09:08:16.413Z,15.58
2023-04-05T09:09:17.107Z,15.77
2023-04-05T09:10:16.400Z,15.97
2023-04-05T09:11:16.399Z,16.31
2023-04-05T09:12:16.382Z,15.97
2023-04-05T09:13:16.382Z,15.39
2023-04-05T09:14:16.390Z,14.78
2023-04-05T09:15:16.404Z,14.22
2023-04-05T09:16:16.402Z,14.37
2023-04-05T09:17:16.395Z,13.90
2023-04-05T09:18:26.127Z,13.31
2023-04-05T09:19:18.358Z,12.93
2023-04-05T09:20:16.334Z,12.22
2023-04-05T09:21:16.315Z,11.62
2023-04-05T09:22:16.308Z,12.02
2023-04-05T09:23:16.296Z,12.73
2023-04-05T09:24:16.326Z,11.69
2023-04-05T09:25:16.281Z,10.64
2023-04-05T09:26:16.275Z,10.17
2023-04-05T09:27:16.285Z,10.37
2023-04-05T09:28:16.262Z,10.38
2023-04-05T09:29:16.278Z,10.75
2023-04-05T09:30:16.251Z,10.44
2023-04-05T09:31:16.241Z,10.79
2023-04-05T09:32:16.250Z,10.74
2023-04-05T09:33:16.224Z,10.78
2023-04-05T09:34:16.241Z,10.97
2023-04-05T09:35:16.213Z,10.90
2023-04-05T09:36:16.199Z,10.93
2023-04-05T09:37:16.211Z,11.08
2023-04-05T09:38:16.199Z,11.69
2023-04-05T09:39:16.219Z,12.00
2023-04-05T09:40:16.177Z,12.49
2023-04-05T09:41:16.165Z,12.80
2023-04-05T09:42:16.155Z,12.93
2023-04-05T09:43:16.156Z,12.94
2023-04-05T09:44:16.170Z,13.35
2023-04-05T09:45:16.139Z,13.30
2023-04-05T09:46:16.152Z,12.95
2023-04-05T09:47:16.149Z,12.78
2023-04-05T09:48:16.132Z,13.04
2023-04-05T09:49:16.128Z,13.30
2023-04-05T09:50:16.137Z,13.35
2023-04-05T09:51:16.101Z,13.52
2023-04-05T09:52:16.079Z,13.49
2023-04-05T09:53:16.386Z,13.49
2023-04-05T09:54:16.083Z,13.00
2023-04-05T09:55:16.055Z,12.85
2023-04-05T09:56:16.048Z,13.03
2023-04-05T09:57:16.036Z,12.65
2023-04-05T09:58:16.030Z,12.47
2023-04-05T09:59:16.095Z,12.57
2023-04-05T10:00:17.014Z,12.62
2023-04-05T10:01:17.411Z,12.42
2023-04-05T10:02:17.069Z,12.35
2023-04-05T10:03:16.044Z,12.09
2023-04-05T10:04:16.144Z,12.02
2023-04-05T10:05:15.998Z,11.78
2023-04-05T10:06:15.965Z,11.52
2023-04-05T10:07:15.968Z,11.43
2023-04-05T10:08:15.953Z,11.26
2023-04-05T10:09:15.965Z,11.08
2023-04-05T10:10:15.940Z,11.14
2023-04-05T10:11:15.921Z,10.97
2023-04-05T10:12:16.914Z,10.75
2023-04-05T10:13:15.922Z,10.69
2023-04-05T10:14:15.940Z,10.90
2023-04-05T10:15:15.888Z,11.10
2023-04-05T10:16:16.016Z,11.30
2023-04-05T10:17:15.874Z,11.57
2023-04-05T10:18:15.911Z,11.54
2023-04-05T10:19:15.889Z,11.57
2023-04-05T10:20:15.846Z,11.43
2023-04-05T10:21:15.840Z,11.36
2023-04-05T10:22:15.833Z,11.51
2023-04-05T10:23:15.860Z,11.63
2023-04-05T10:24:15.820Z,11.95
2023-04-05T10:25:15.855Z,12.18
2023-04-05T10:26:15.804Z,12.10
2023-04-05T10:27:15.806Z,12.12
2023-04-05T10:28:15.791Z,12.02
2023-04-05T10:29:15.784Z,11.18
2023-04-05T10:30:15.888Z,10.05
2023-04-05T10:31:27.021Z,9.34
2023-04-05T10:32:17.816Z,8.92
2023-04-05T10:33:15.762Z,8.78
2023-04-05T10:34:15.747Z,8.64
2023-04-05T10:35:15.765Z,8.66
2023-04-05T10:36:15.760Z,8.52
2023-04-05T10:37:15.756Z,8.45
2023-04-05T10:38:15.755Z,8.63
2023-04-05T10:39:15.709Z,8.66
2023-04-05T10:40:15.730Z,8.87
2023-04-05T10:41:15.676Z,9.13
2023-04-05T10:42:15.680Z,8.99
2023-04-05T10:43:15.672Z,8.56
2023-04-05T10:44:25.720Z,8.60
2023-04-05T10:45:17.743Z,8.61
2023-04-05T10:46:15.726Z,8.71
2023-04-05T10:47:15.764Z,8.84
2023-04-05T10:48:15.673Z,9.03
2023-04-05T10:49:15.640Z,9.16
2023-04-05T10:50:15.635Z,9.21
2023-04-05T10:51:15.640Z,9.18
2023-04-05T10:52:15.622Z,8.82
2023-04-05T10:53:15.658Z,8.33
2023-04-05T10:54:15.585Z,7.98
2023-04-05T10:55:15.668Z,7.77
2023-04-05T10:56:15.606Z,7.76
2023-04-05T10:57:15.566Z,7.91
2023-04-05T10:58:15.586Z,7.85
2023-04-05T10:59:15.634Z,8.06
2023-04-05T11:00:15.623Z,8.10
2023-04-05T11:01:15.574Z,8.19
2023-04-05T11:02:15.532Z,8.61
2023-04-05T11:03:15.546Z,8.58
2023-04-05T11:04:15.546Z,8.79
2023-04-05T11:05:15.531Z,8.46
2023-04-05T11:06:15.498Z,8.27
2023-04-05T11:07:15.482Z,8.12
2023-04-05T11:08:15.471Z,7.69
2023-04-05T11:09:15.459Z,7.58
2023-04-05T11:10:15.485Z,7.79
2023-04-05T11:11:15.458Z,8.01
2023-04-05T11:12:15.450Z,8.00
2023-04-05T11:13:15.432Z,8.24
2023-04-05T11:14:15.433Z,8.42
2023-04-05T11:15:15.461Z,8.51
2023-04-05T11:16:15.447Z,8.73
2023-04-05T11:17:15.422Z,8.92
2023-04-05T11:18:15.400Z,9.23
2023-04-05T11:19:15.384Z,9.46
2023-04-05T11:20:15.413Z,9.79
2023-04-05T11:21:15.367Z,10.07
2023-04-05T11:22:15.371Z,10.33
2023-04-05T11:23:15.367Z,10.46
2023-04-05T11:24:15.352Z,10.69
2023-04-05T11:25:15.365Z,10.86
2023-04-05T11:26:15.334Z,10.61
2023-04-05T11:27:15.352Z,10.51
2023-04-05T11:28:15.310Z,10.26
2023-04-05T11:29:15.310Z,10.33
2023-04-05T11:30:15.313Z,10.57
2023-04-05T11:31:15.396Z,10.54
2023-04-05T11:32:15.280Z,10.38
2023-04-05T11:33:15.279Z,10.42
2023-04-05T11:34:15.278Z,10.64
2023-04-05T11:35:15.282Z,10.87
2023-04-05T11:36:15.324Z,10.97
2023-04-05T11:37:15.265Z,10.94
2023-04-05T11:38:15.237Z,11.08
2023-04-05T11:39:15.229Z,11.14
2023-04-05T11:40:15.248Z,11.00
2023-04-05T11:41:15.236Z,11.11
2023-04-05T11:42:15.212Z,11.08
2023-04-05T11:43:15.207Z,11.12
2023-04-05T11:44:15.201Z,11.17
2023-04-05T11:45:15.186Z,11.07
2023-04-05T11:46:15.238Z,11.08
2023-04-05T11:47:15.167Z,11.11
2023-04-05T11:48:15.160Z,11.22
2023-04-05T11:49:15.158Z,11.10
2023-04-05T11:50:15.145Z,10.89
2023-04-05T11:51:15.192Z,10.87
2023-04-05T11:52:15.134Z,11.08
2023-04-05T11:53:15.108Z,11.47
2023-04-05T11:54:16.108Z,11.40
2023-04-05T11:55:15.115Z,11.44
2023-04-05T11:56:15.133Z,11.30
2023-04-05T11:57:15.089Z,11.36
2023-04-05T11:58:15.097Z,11.54
2023-04-05T11:59:15.112Z,11.43
2023-04-05T12:00:15.060Z,11.08
2023-04-05T12:01:15.071Z,10.33
2023-04-05T12:02:15.137Z,10.37
2023-04-05T12:03:15.189Z,10.28
2023-04-05T12:04:15.033Z,10.33
2023-04-05T12:05:15.065Z,10.23
2023-04-05T12:06:15.041Z,9.65
2023-04-05T12:07:15.015Z,9.44
2023-04-05T12:08:14.995Z,9.61
2023-04-05T12:09:14.997Z,9.74
2023-04-05T12:10:14.974Z,9.91
2023-04-05T12:11:14.991Z,10.07
2023-04-05T12:12:14.965Z,10.35
2023-04-05T12:13:14.954Z,10.38
2023-04-05T12:14:14.946Z,10.48
2023-04-05T12:15:15.020Z,10.54
2023-04-05T12:16:14.999Z,10.49
2023-04-05T12:17:14.933Z,10.68
2023-04-05T12:18:14.924Z,10.67
2023-04-05T12:19:14.903Z,10.76
2023-04-05T12:20:14.912Z,10.81
2023-04-05T12:21:14.979Z,10.75
2023-04-05T12:22:14.889Z,11.00
2023-04-05T12:23:14.893Z,11.08
2023-04-05T12:24:14.865Z,11.23
2023-04-05T12:25:14.881Z,11.43
2023-04-05T12:26:14.851Z,11.59
2023-04-05T12:27:14.844Z,11.78
2023-04-05T12:28:14.836Z,11.94
2023-04-05T12:29:14.835Z,12.09
2023-04-05T12:30:14.958Z,12.25
2023-04-05T12:31:14.814Z,12.22
2023-04-05T12:32:14.928Z,12.27
2023-04-05T12:33:14.813Z,12.42
2023-04-05T12:34:14.841Z,12.61
2023-04-05T12:35:14.814Z,12.49
2023-04-05T12:36:14.831Z,12.15
2023-04-05T12:37:14.774Z,12.06
2023-04-05T12:38:14.764Z,11.97
2023-04-05T12:39:14.755Z,12.03
2023-04-05T12:40:14.783Z,12.09
2023-04-05T12:41:14.742Z,12.35
2023-04-05T12:42:14.740Z,12.36
2023-04-05T12:43:14.726Z,12.15
2023-04-05T12:44:14.741Z,11.65
2023-04-05T12:45:14.717Z,11.59
2023-04-05T12:46:14.771Z,11.36
2023-04-05T12:47:14.700Z,11.05
2023-04-05T12:48:14.685Z,10.51
2023-04-05T12:49:14.682Z,9.66
2023-04-05T12:50:14.679Z,9.41
2023-04-05T12:51:14.686Z,9.21
2023-04-05T12:52:14.650Z,9.23
2023-04-05T12:53:14.637Z,9.32
2023-04-05T12:54:14.653Z,9.48
2023-04-05T12:55:14.631Z,9.65
2023-04-05T12:56:14.641Z,9.82